Rossville, Iowa
Current Conditions -  °F | °C
As of 9:15 AM on Sunday 21 Dec 2014 (Local Time) from KPDC Reporting Station
Haze Haze  
Wind Chill: 31°   Ceiling: 600
Heat Index: 36°   Visibility: 3mi
Dew Point: 33°   Wind: 6mph
Humidity: 88%   Direction: 140°SE
Pressure: 30.04"   Gusts: NA
Location:  43.0888°N, 91.4288°W
Report Text: KPDC 211515Z AUTO 14005KT 3SM BR OVC006 02/01 A3004 RMK AO2 T00230005
Loading
Personal Weather Stations






























Interactive Weather Map New forecast layout! Learn more

10-Day Weather Forecast

Advertisements
Track Severe Weather on mobile